createdAt,value
2018-10-21T00:00:42.166Z,99.90
2018-10-21T00:03:10.982Z,99.90
2018-10-21T00:05:39.779Z,99.90
2018-10-21T00:08:08.553Z,99.90
2018-10-21T00:10:37.238Z,99.90
2018-10-21T00:13:06.123Z,99.90
2018-10-21T00:15:35.023Z,99.90
2018-10-21T00:18:04.195Z,99.90
2018-10-21T00:20:34.869Z,99.90
2018-10-21T00:23:03.481Z,99.90
2018-10-21T00:25:32.119Z,99.90
2018-10-21T00:28:00.824Z,99.90
2018-10-21T00:30:29.523Z,99.90
2018-10-21T00:32:58.661Z,99.90
2018-10-21T00:35:27.452Z,99.90
2018-10-21T00:37:56.128Z,99.90
2018-10-21T00:40:24.690Z,99.90
2018-10-21T00:42:53.307Z,99.90
2018-10-21T00:45:21.955Z,99.90
2018-10-21T00:47:50.548Z,99.90
2018-10-21T00:50:19.490Z,99.90
2018-10-21T00:52:48.088Z,99.90
2018-10-21T00:55:16.868Z,99.90
2018-10-21T00:57:45.522Z,99.90
2018-10-21T01:00:14.244Z,99.90
2018-10-21T01:02:42.819Z,99.90
2018-10-21T01:05:11.798Z,99.90
2018-10-21T01:07:40.625Z,99.90
2018-10-21T01:10:11.379Z,99.90
2018-10-21T01:12:40.441Z,99.90
2018-10-21T01:15:10.759Z,99.90
2018-10-21T01:17:39.650Z,99.90
2018-10-21T01:20:13.277Z,99.90
2018-10-21T01:22:42.343Z,99.90
2018-10-21T01:25:11.587Z,99.90
2018-10-21T01:27:41.340Z,99.90
2018-10-21T01:30:11.625Z,99.90
2018-10-21T01:32:40.255Z,99.90
2018-10-21T01:35:09.338Z,99.90
2018-10-21T01:37:38.466Z,99.90
2018-10-21T01:40:45.635Z,99.90
2018-10-21T01:43:15.875Z,99.90
2018-10-21T01:45:45.027Z,99.90
2018-10-21T01:48:14.928Z,99.90
2018-10-21T01:50:43.596Z,99.90
2018-10-21T01:53:13.164Z,99.90
2018-10-21T01:55:41.772Z,99.90
2018-10-21T01:58:10.391Z,99.90
2018-10-21T02:00:40.058Z,99.90
2018-10-21T02:03:08.782Z,99.90
2018-10-21T02:05:41.784Z,99.90
2018-10-21T02:08:10.513Z,99.90
2018-10-21T02:10:39.084Z,99.90
2018-10-21T02:13:08.327Z,99.90
2018-10-21T02:15:37.177Z,99.90
2018-10-21T02:18:05.962Z,99.90
2018-10-21T02:20:34.563Z,99.90
2018-10-21T02:23:03.295Z,99.90
2018-10-21T02:25:31.994Z,99.90
2018-10-21T02:28:00.895Z,99.90
2018-10-21T02:30:30.616Z,99.90
2018-10-21T02:33:00.145Z,99.90
2018-10-21T02:35:29.006Z,99.90
2018-10-21T02:37:58.169Z,99.90
2018-10-21T02:41:40.556Z,99.90
2018-10-21T02:44:11.163Z,99.90
2018-10-21T02:46:40.162Z,99.90
2018-10-21T02:49:09.747Z,99.90
2018-10-21T02:51:38.404Z,99.90
2018-10-21T02:54:07.463Z,99.90
2018-10-21T02:56:36.008Z,99.90
2018-10-21T02:59:05.259Z,99.90
2018-10-21T03:01:33.996Z,99.90
2018-10-21T03:04:02.610Z,99.90
2018-10-21T03:06:31.186Z,99.90
2018-10-21T03:11:28.221Z,99.90
2018-10-21T03:13:56.897Z,99.90
2018-10-21T03:16:25.752Z,99.90
2018-10-21T03:18:54.434Z,99.90
2018-10-21T03:21:23.129Z,99.90
2018-10-21T03:23:51.791Z,99.90
2018-10-21T03:26:22.598Z,99.90
2018-10-21T03:28:51.224Z,99.90
2018-10-21T03:31:19.836Z,99.90
2018-10-21T03:33:48.436Z,99.90
2018-10-21T03:36:17.359Z,99.90
2018-10-21T03:38:45.977Z,99.90
2018-10-21T03:41:14.555Z,99.90
2018-10-21T03:43:43.354Z,99.90
2018-10-21T03:46:13.429Z,99.90
2018-10-21T03:48:42.399Z,99.90
2018-10-21T03:51:11.170Z,99.90
2018-10-21T03:53:39.815Z,99.90
2018-10-21T03:56:08.375Z,99.90
2018-10-21T03:58:36.956Z,99.90
2018-10-21T04:01:06.018Z,99.90
2018-10-21T04:03:35.285Z,99.90
2018-10-21T04:06:03.908Z,99.90
2018-10-21T04:08:32.511Z,99.90
2018-10-21T04:11:01.170Z,99.90
2018-10-21T04:13:29.932Z,99.90
2018-10-21T04:15:58.634Z,99.90
2018-10-21T04:18:27.291Z,99.90
2018-10-21T04:20:55.920Z,99.90
2018-10-21T04:23:24.804Z,99.90
2018-10-21T04:25:53.375Z,99.90
2018-10-21T04:28:22.292Z,99.90
2018-10-21T04:30:50.870Z,99.90
2018-10-21T04:33:23.675Z,99.90
2018-10-21T04:35:52.459Z,99.90
2018-10-21T04:38:32.899Z,99.90
2018-10-21T04:41:01.553Z,99.90
2018-10-21T04:43:30.208Z,99.90
2018-10-21T04:45:58.870Z,99.90
2018-10-21T04:48:27.781Z,99.90
2018-10-21T04:50:56.432Z,99.90
2018-10-21T04:53:25.026Z,99.90
2018-10-21T04:55:53.746Z,99.90
2018-10-21T04:58:22.428Z,99.90
2018-10-21T05:00:51.093Z,99.90
2018-10-21T05:03:19.784Z,99.90
2018-10-21T05:05:48.461Z,99.90
2018-10-21T05:08:17.002Z,99.90
2018-10-21T05:10:45.585Z,99.90
2018-10-21T05:13:14.234Z,99.90
2018-10-21T05:15:42.840Z,99.90
2018-10-21T05:18:11.499Z,99.90
2018-10-21T05:20:40.055Z,99.90
2018-10-21T05:23:08.655Z,99.90
2018-10-21T05:25:37.360Z,99.90
2018-10-21T05:28:06.377Z,99.90
2018-10-21T05:30:35.155Z,99.90
2018-10-21T05:33:03.775Z,99.90
2018-10-21T05:35:32.530Z,99.90
2018-10-21T05:38:01.316Z,99.90
2018-10-21T05:40:30.018Z,99.90
2018-10-21T05:42:58.829Z,99.90
2018-10-21T05:45:27.542Z,99.90
2018-10-21T05:47:56.245Z,99.90
2018-10-21T05:50:24.850Z,99.90
2018-10-21T05:52:53.408Z,99.90
2018-10-21T05:55:22.127Z,99.90
2018-10-21T05:57:50.796Z,99.90
2018-10-21T06:00:20.341Z,99.90
2018-10-21T06:02:48.879Z,99.90
2018-10-21T06:05:38.636Z,99.90
2018-10-21T06:08:07.342Z,99.90
2018-10-21T06:10:36.100Z,99.90
2018-10-21T06:13:05.127Z,99.90
2018-10-21T06:15:33.788Z,99.90
2018-10-21T06:18:03.356Z,99.90
2018-10-21T06:20:38.811Z,99.90
2018-10-21T06:23:07.375Z,99.90
2018-10-21T06:25:35.932Z,99.90
2018-10-21T06:28:04.808Z,99.90
2018-10-21T06:30:33.539Z,99.90
2018-10-21T06:33:02.359Z,99.90
2018-10-21T06:35:31.226Z,99.90
2018-10-21T06:37:59.766Z,99.90
2018-10-21T06:40:28.464Z,99.90
2018-10-21T06:42:57.183Z,99.90
2018-10-21T06:45:25.901Z,99.90
2018-10-21T06:47:55.188Z,99.90
2018-10-21T06:50:23.806Z,99.90
2018-10-21T06:52:52.419Z,99.90
2018-10-21T06:55:21.059Z,99.90
2018-10-21T06:57:49.781Z,99.90
2018-10-21T07:00:18.528Z,99.90
2018-10-21T07:02:47.155Z,99.90
2018-10-21T07:05:27.066Z,99.90
2018-10-21T07:07:55.742Z,99.90
2018-10-21T07:10:24.334Z,99.90
2018-10-21T07:12:52.946Z,99.90
2018-10-21T07:15:21.803Z,99.90
2018-10-21T07:17:50.512Z,99.90
2018-10-21T07:20:19.152Z,99.90
2018-10-21T07:22:47.745Z,99.90
2018-10-21T07:25:16.252Z,99.90
2018-10-21T07:27:44.844Z,99.90
2018-10-21T07:30:13.919Z,99.90
2018-10-21T07:32:43.390Z,99.90
2018-10-21T07:35:13.438Z,99.90
2018-10-21T07:37:42.886Z,99.90
2018-10-21T07:40:12.345Z,99.90
2018-10-21T07:42:41.252Z,99.90
2018-10-21T07:45:10.040Z,99.90
2018-10-21T07:47:38.616Z,99.90
2018-10-21T07:50:07.313Z,99.90
2018-10-21T07:52:36.105Z,99.90
2018-10-21T07:55:04.805Z,99.90
2018-10-21T07:57:33.663Z,99.90
2018-10-21T08:00:02.275Z,99.90
2018-10-21T08:02:30.879Z,99.90
2018-10-21T08:04:59.496Z,99.90
2018-10-21T08:07:39.424Z,99.90
2018-10-21T08:10:08.157Z,99.90
2018-10-21T08:12:36.938Z,99.90
2018-10-21T08:15:05.777Z,99.90
2018-10-21T08:17:34.813Z,99.90
2018-10-21T08:20:03.516Z,99.90
2018-10-21T08:22:32.194Z,99.90
2018-10-21T08:25:00.892Z,99.90
2018-10-21T08:27:29.553Z,99.90
2018-10-21T08:29:58.151Z,99.90
2018-10-21T08:32:26.839Z,99.90
2018-10-21T08:34:55.395Z,99.90
2018-10-21T08:37:23.992Z,99.90
2018-10-21T08:39:52.580Z,99.90
2018-10-21T08:42:21.259Z,99.90
2018-10-21T08:44:49.830Z,99.90
2018-10-21T08:47:18.491Z,99.90
2018-10-21T08:49:47.130Z,99.90
2018-10-21T08:52:15.984Z,99.90
2018-10-21T08:54:44.722Z,99.90
2018-10-21T08:57:13.489Z,99.90
2018-10-21T08:59:42.089Z,99.90
2018-10-21T09:02:10.949Z,99.90
2018-10-21T09:04:39.667Z,99.90
2018-10-21T09:07:08.373Z,99.90
2018-10-21T09:09:37.127Z,99.90
2018-10-21T09:12:06.659Z,99.90
2018-10-21T09:14:35.291Z,99.90
2018-10-21T09:17:04.228Z,99.90
2018-10-21T09:19:32.795Z,99.90
2018-10-21T09:22:01.417Z,99.90
2018-10-21T09:24:29.996Z,99.90
2018-10-21T09:26:58.637Z,99.90
2018-10-21T09:29:27.196Z,99.90
2018-10-21T09:31:55.779Z,99.90
2018-10-21T09:34:24.443Z,99.90
2018-10-21T09:36:53.120Z,99.90
2018-10-21T09:39:21.731Z,99.90
2018-10-21T09:41:50.436Z,99.90
2018-10-21T09:44:19.066Z,99.90
2018-10-21T09:46:48.022Z,99.90
2018-10-21T09:49:16.700Z,99.90
2018-10-21T09:51:45.395Z,99.90
2018-10-21T09:54:14.002Z,99.90
2018-10-21T09:56:42.741Z,99.90
2018-10-21T09:59:11.365Z,99.10
2018-10-21T10:01:45.201Z,99.40
2018-10-21T10:04:13.860Z,99.60
2018-10-21T10:06:42.717Z,99.20
2018-10-21T10:09:13.053Z,96.40
2018-10-21T10:11:42.907Z,96.10
2018-10-21T10:14:11.622Z,97.30
2018-10-21T10:16:40.257Z,95.00
2018-10-21T10:19:08.975Z,95.80
2018-10-21T10:21:37.866Z,96.90
2018-10-21T10:24:06.508Z,97.00
2018-10-21T10:26:35.496Z,96.80
2018-10-21T10:29:04.437Z,97.40
2018-10-21T10:31:33.121Z,96.80
2018-10-21T10:34:01.692Z,98.00
2018-10-21T10:36:30.572Z,95.60
2018-10-21T10:38:59.343Z,95.30
2018-10-21T10:41:28.442Z,94.40
2018-10-21T10:43:57.107Z,93.60
2018-10-21T10:46:25.762Z,93.00
2018-10-21T10:48:54.594Z,93.80
2018-10-21T10:51:23.267Z,95.10
2018-10-21T10:53:51.981Z,94.30
2018-10-21T10:56:21.536Z,94.70
2018-10-21T10:58:50.163Z,94.20
2018-10-21T11:01:18.901Z,94.80
2018-10-21T11:03:47.687Z,94.40
2018-10-21T11:06:16.504Z,93.70
2018-10-21T11:08:45.387Z,92.50
2018-10-21T11:11:14.078Z,92.80
2018-10-21T11:13:42.693Z,92.00
2018-10-21T11:16:11.550Z,92.10
2018-10-21T11:18:40.341Z,91.00
2018-10-21T11:21:08.980Z,91.20
2018-10-21T11:23:37.691Z,92.00
2018-10-21T11:26:06.494Z,93.30
2018-10-21T11:28:35.097Z,91.40
2018-10-21T11:31:03.811Z,90.10
2018-10-21T11:33:32.623Z,91.90
2018-10-21T11:36:01.577Z,91.90
2018-10-21T11:38:30.323Z,94.90
2018-10-21T11:40:58.951Z,96.40
2018-10-21T11:43:27.922Z,95.00
2018-10-21T11:45:56.658Z,93.90
2018-10-21T11:48:25.516Z,95.40
2018-10-21T11:50:54.194Z,96.30
2018-10-21T11:53:23.203Z,96.50
2018-10-21T11:55:51.807Z,96.90
2018-10-21T11:58:20.435Z,96.00
2018-10-21T12:00:49.141Z,94.20
2018-10-21T12:03:17.847Z,94.80
2018-10-21T12:05:46.494Z,95.60
2018-10-21T12:08:15.159Z,96.70
2018-10-21T12:10:43.740Z,95.60
2018-10-21T12:13:12.418Z,94.30
2018-10-21T12:15:41.215Z,93.80
2018-10-21T12:18:09.771Z,95.50
2018-10-21T12:20:39.078Z,97.40
2018-10-21T12:23:07.965Z,98.30
2018-10-21T12:25:36.818Z,98.50
2018-10-21T12:28:05.816Z,98.80
2018-10-21T12:30:34.723Z,98.80
2018-10-21T12:33:03.391Z,98.60
2018-10-21T12:35:32.183Z,99.60
2018-10-21T12:38:00.817Z,99.90
2018-10-21T12:40:29.497Z,99.90
2018-10-21T12:42:58.540Z,99.90
2018-10-21T12:45:27.683Z,99.90
2018-10-21T12:47:56.407Z,99.90
2018-10-21T12:50:25.242Z,99.90
2018-10-21T12:52:54.174Z,99.90
2018-10-21T12:55:23.053Z,99.90
2018-10-21T12:57:51.842Z,99.90
2018-10-21T13:00:20.762Z,99.90
2018-10-21T13:02:49.404Z,99.90
2018-10-21T13:05:17.939Z,99.90
2018-10-21T13:07:46.688Z,99.90
2018-10-21T13:10:15.401Z,99.90
2018-10-21T13:12:44.171Z,99.90
2018-10-21T13:15:12.987Z,99.90
2018-10-21T13:17:41.752Z,99.90
2018-10-21T13:20:10.855Z,99.90
2018-10-21T13:22:39.498Z,99.90
2018-10-21T13:25:08.575Z,99.90
2018-10-21T13:27:37.542Z,99.90
2018-10-21T13:30:07.075Z,99.90
2018-10-21T13:32:35.635Z,99.90
2018-10-21T13:35:04.276Z,99.90
2018-10-21T13:37:33.040Z,99.90
2018-10-21T13:40:01.844Z,99.90
2018-10-21T13:42:30.788Z,99.90
2018-10-21T13:44:59.451Z,99.90
2018-10-21T13:47:28.128Z,99.90
2018-10-21T13:49:56.744Z,99.90
2018-10-21T13:52:25.460Z,99.90
2018-10-21T13:54:54.422Z,99.90
2018-10-21T13:57:23.266Z,99.90
2018-10-21T13:59:52.008Z,99.90
2018-10-21T14:02:20.763Z,99.90
2018-10-21T14:04:49.399Z,99.80
2018-10-21T14:07:18.411Z,99.80
2018-10-21T14:09:47.242Z,99.90
2018-10-21T14:12:15.858Z,99.90
2018-10-21T14:14:44.500Z,99.90
2018-10-21T14:17:13.330Z,99.90
2018-10-21T14:19:42.112Z,99.90
2018-10-21T14:22:11.141Z,99.90
2018-10-21T14:24:40.089Z,99.90
2018-10-21T14:29:51.080Z,99.90
2018-10-21T14:32:20.006Z,99.90
2018-10-21T14:34:48.710Z,99.90
2018-10-21T14:37:17.450Z,99.90
2018-10-21T14:39:46.005Z,99.90
2018-10-21T14:42:14.678Z,99.90
2018-10-21T14:44:43.502Z,99.90
2018-10-21T14:47:12.151Z,99.90
2018-10-21T14:49:40.846Z,99.90
2018-10-21T14:52:09.452Z,99.90
2018-10-21T14:54:38.468Z,99.90
2018-10-21T14:57:07.226Z,99.90
2018-10-21T14:59:35.927Z,99.90
2018-10-21T15:02:04.952Z,99.90
2018-10-21T15:04:33.767Z,99.90
2018-10-21T15:07:02.445Z,99.90
2018-10-21T15:09:31.081Z,99.90
2018-10-21T15:11:59.968Z,99.90
2018-10-21T15:14:28.691Z,99.90
2018-10-21T15:16:57.312Z,99.90
2018-10-21T15:19:25.903Z,99.90
2018-10-21T15:22:00.707Z,99.90
2018-10-21T15:24:29.476Z,99.90
2018-10-21T15:26:58.337Z,99.90
2018-10-21T15:29:26.839Z,99.90
2018-10-21T15:31:55.694Z,99.90
2018-10-21T15:34:24.966Z,99.90
2018-10-21T15:36:54.060Z,99.90
2018-10-21T15:39:23.209Z,99.90
2018-10-21T15:41:52.010Z,99.90
2018-10-21T15:44:20.946Z,99.90
2018-10-21T15:46:49.987Z,99.90
2018-10-21T15:49:18.901Z,99.90
2018-10-21T15:51:47.770Z,99.90
2018-10-21T15:54:16.823Z,99.90
2018-10-21T15:56:45.858Z,99.90
2018-10-21T15:59:14.679Z,99.90
2018-10-21T16:01:43.418Z,99.90
2018-10-21T16:04:12.216Z,99.90
2018-10-21T16:06:40.715Z,99.90
2018-10-21T16:09:11.314Z,99.90
2018-10-21T16:11:40.036Z,99.90
2018-10-21T16:14:08.841Z,99.90
2018-10-21T16:16:37.486Z,99.90
2018-10-21T16:19:06.560Z,99.90
2018-10-21T16:21:36.521Z,99.90
2018-10-21T16:24:05.624Z,99.90
2018-10-21T16:26:34.986Z,99.90
2018-10-21T16:29:03.895Z,99.90
2018-10-21T16:31:32.583Z,99.90
2018-10-21T16:34:01.378Z,99.90
2018-10-21T16:36:30.380Z,99.90
2018-10-21T16:38:59.112Z,99.90
2018-10-21T16:41:30.025Z,99.90
2018-10-21T16:43:58.766Z,99.90
2018-10-21T16:46:27.602Z,99.90
2018-10-21T16:48:56.439Z,99.90
2018-10-21T16:51:25.316Z,99.90
2018-10-21T16:53:54.019Z,99.90
2018-10-21T16:56:23.022Z,99.90
2018-10-21T16:58:51.661Z,99.90
2018-10-21T17:01:20.703Z,99.90
2018-10-21T17:03:49.535Z,99.90
2018-10-21T17:06:18.374Z,99.90
2018-10-21T17:08:46.982Z,99.90
2018-10-21T17:11:15.694Z,99.90
2018-10-21T17:13:44.493Z,99.90
2018-10-21T17:16:13.140Z,99.90
2018-10-21T17:18:42.049Z,99.90
2018-10-21T17:21:10.699Z,99.90
2018-10-21T17:23:39.430Z,99.90
2018-10-21T17:26:10.164Z,99.90
2018-10-21T17:28:38.874Z,99.90
2018-10-21T17:31:14.839Z,99.90
2018-10-21T17:34:02.433Z,99.90
2018-10-21T17:36:31.277Z,99.90
2018-10-21T17:39:00.052Z,99.90
2018-10-21T17:41:28.829Z,99.90
2018-10-21T17:43:57.685Z,99.90
2018-10-21T17:46:26.470Z,99.90
2018-10-21T17:48:55.507Z,99.90
2018-10-21T17:51:24.387Z,99.90
2018-10-21T17:53:53.290Z,99.90
2018-10-21T17:56:22.178Z,99.90
2018-10-21T17:58:51.132Z,99.90
2018-10-21T18:01:20.359Z,99.90
2018-10-21T18:03:49.207Z,99.90
2018-10-21T18:06:17.970Z,99.90
2018-10-21T18:08:46.680Z,99.90
2018-10-21T18:11:15.382Z,99.90
2018-10-21T18:13:44.608Z,99.90
2018-10-21T18:16:13.352Z,99.90
2018-10-21T18:18:42.100Z,99.90
2018-10-21T18:21:10.772Z,99.90
2018-10-21T18:23:39.515Z,99.90
2018-10-21T18:26:08.234Z,99.90
2018-10-21T18:28:37.038Z,99.90
2018-10-21T18:31:06.188Z,99.90
2018-10-21T18:33:35.016Z,99.90
2018-10-21T18:36:05.128Z,99.90
2018-10-21T18:38:33.830Z,99.90
2018-10-21T18:41:02.721Z,99.90
2018-10-21T18:43:31.407Z,99.90
2018-10-21T18:46:00.082Z,99.90
2018-10-21T18:48:28.957Z,99.90
2018-10-21T18:50:57.712Z,99.90
2018-10-21T18:53:26.383Z,99.90
2018-10-21T18:55:55.124Z,99.90
2018-10-21T18:58:23.807Z,99.90
2018-10-21T19:00:52.403Z,99.90
2018-10-21T19:03:21.569Z,99.90
2018-10-21T19:05:50.236Z,99.90
2018-10-21T19:08:18.799Z,99.90
2018-10-21T19:10:47.377Z,99.90
2018-10-21T19:13:16.095Z,99.90
2018-10-21T19:15:45.011Z,99.90
2018-10-21T19:18:13.671Z,99.90
2018-10-21T19:20:42.363Z,99.90
2018-10-21T19:23:11.059Z,99.90
2018-10-21T19:25:39.800Z,99.90
2018-10-21T19:28:08.471Z,99.90
2018-10-21T19:30:37.564Z,99.90
2018-10-21T19:33:06.438Z,99.90
2018-10-21T19:35:35.042Z,99.90
2018-10-21T19:38:03.707Z,99.90
2018-10-21T19:40:32.311Z,99.90
2018-10-21T19:43:01.079Z,99.90
2018-10-21T19:45:30.021Z,99.90
2018-10-21T19:47:58.623Z,99.90
2018-10-21T19:50:27.359Z,99.90
2018-10-21T19:52:55.971Z,99.90
2018-10-21T19:55:24.656Z,99.90
2018-10-21T19:57:53.288Z,99.90
2018-10-21T20:00:21.907Z,99.90
2018-10-21T20:02:50.721Z,99.90
2018-10-21T20:05:19.303Z,99.90
2018-10-21T20:07:48.461Z,99.90
2018-10-21T20:10:17.252Z,99.90
2018-10-21T20:12:46.039Z,99.90
2018-10-21T20:15:14.764Z,99.90
2018-10-21T20:17:43.427Z,99.90
2018-10-21T20:20:12.568Z,99.90
2018-10-21T20:22:41.181Z,99.90
2018-10-21T20:25:10.695Z,99.90
2018-10-21T20:27:39.423Z,99.90
2018-10-21T20:30:09.659Z,99.90
2018-10-21T20:32:38.179Z,99.90
2018-10-21T20:35:08.161Z,99.90
2018-10-21T20:37:36.926Z,99.90
2018-10-21T20:40:06.544Z,99.90
2018-10-21T20:42:35.288Z,99.90
2018-10-21T20:45:04.282Z,99.90
2018-10-21T20:47:32.883Z,99.90
2018-10-21T20:50:01.418Z,99.90
2018-10-21T20:52:29.999Z,99.90
2018-10-21T20:54:58.560Z,99.90
2018-10-21T20:57:27.159Z,99.90
2018-10-21T20:59:55.783Z,99.90
2018-10-21T21:02:24.520Z,99.90
2018-10-21T21:04:53.124Z,99.90
2018-10-21T21:07:21.715Z,99.90
2018-10-21T21:09:50.299Z,99.90
2018-10-21T21:12:18.953Z,99.90
2018-10-21T21:14:47.746Z,99.90
2018-10-21T21:17:16.345Z,99.90
2018-10-21T21:19:44.997Z,99.90
2018-10-21T21:22:13.688Z,99.90
2018-10-21T21:24:42.400Z,99.90
2018-10-21T21:27:11.436Z,99.90
2018-10-21T21:29:40.092Z,99.90
2018-10-21T21:32:09.124Z,99.90
2018-10-21T21:34:39.439Z,99.90
2018-10-21T21:37:08.213Z,99.90
2018-10-21T21:39:36.932Z,99.90
2018-10-21T21:42:05.781Z,99.90
2018-10-21T21:44:34.561Z,99.90
2018-10-21T21:47:03.205Z,99.90
2018-10-21T21:49:31.853Z,99.90
2018-10-21T21:52:00.430Z,99.90
2018-10-21T21:54:29.210Z,99.90
2018-10-21T21:56:57.852Z,99.90
2018-10-21T21:59:26.472Z,99.90
2018-10-21T22:01:57.160Z,99.90
2018-10-21T22:04:25.723Z,99.90
2018-10-21T22:06:54.300Z,99.90
2018-10-21T22:09:22.907Z,99.90
2018-10-21T22:11:51.570Z,99.90
2018-10-21T22:14:20.325Z,99.90
2018-10-21T22:16:49.009Z,99.90
2018-10-21T22:19:17.638Z,99.90
2018-10-21T22:21:46.278Z,99.90
2018-10-21T22:24:15.319Z,99.90
2018-10-21T22:26:44.432Z,99.90
2018-10-21T22:29:13.047Z,99.90
2018-10-21T22:31:41.663Z,99.90
2018-10-21T22:34:10.413Z,99.90
2018-10-21T22:36:39.262Z,99.90
2018-10-21T22:39:08.382Z,99.90
2018-10-21T22:41:37.308Z,99.90
2018-10-21T22:44:06.078Z,99.90
2018-10-21T22:46:34.775Z,99.90
2018-10-21T22:49:03.637Z,99.90
2018-10-21T22:51:32.223Z,99.90
2018-10-21T22:54:00.855Z,99.90
2018-10-21T22:56:29.621Z,99.90
2018-10-21T22:58:58.306Z,99.90
2018-10-21T23:01:26.972Z,99.90
2018-10-21T23:03:55.661Z,99.90
2018-10-21T23:06:24.656Z,99.90
2018-10-21T23:08:53.247Z,99.90
2018-10-21T23:11:21.890Z,99.90
2018-10-21T23:13:50.506Z,99.90
2018-10-21T23:16:19.173Z,99.90
2018-10-21T23:18:47.963Z,99.90
2018-10-21T23:21:16.776Z,99.90
2018-10-21T23:23:45.341Z,99.90
2018-10-21T23:26:13.956Z,99.90
2018-10-21T23:28:42.519Z,99.90
2018-10-21T23:31:11.059Z,99.90
2018-10-21T23:33:39.631Z,99.90
2018-10-21T23:36:08.229Z,99.90
2018-10-21T23:38:36.915Z,99.90
2018-10-21T23:41:05.846Z,99.90
2018-10-21T23:43:34.429Z,99.90
2018-10-21T23:46:03.107Z,99.90
2018-10-21T23:48:31.819Z,99.90
2018-10-21T23:51:00.457Z,99.90
2018-10-21T23:53:28.997Z,99.90
2018-10-21T23:55:57.566Z,99.90
2018-10-21T23:58:26.259Z,99.90
